Manchester Airport Manchester US
ICAO: KMHT
IATA: MHT
Category: Large
Scheduled Services: Yes

Elevation: 266 ft
TransAlt. 18000 ft.

Airport Communications:
Boston Approach/Departure (Below 4000'):124.9
Boston Approach/Departure (4000'-10000'):134.75
ASOS:119.55
ATIS:119.55
CLNC DEL:135.9
GND:121.9
BANGOR RDO:114.4
TWR:121.3
UNICOM:122.95

KMHT Zoom In..

Runways:

(A) RW 06 length 7650 ft width 150 ft
ILS 109.95 / hdg 58

(B) RW 17 length 9250 ft width 150 ft
ILS 109.10 / hdg 173

(C) RW 24 length 7650 ft width 150 ft
---- / hdg 238

(D) RW 35 length 9250 ft width 150 ft
ILS 109.10 / hdg 353

Location; KMHT
Day. 20 / Time. 09.53 Zulu
* Altimeter: 29.89
* Temperature: 03° c. 37.4°f.
* Wind from: 310° Speed 09 kn with Gusts up to 17 kn.
Dewpoint: -04° c.
Visibility: 10 Statute Miles.
Clouds: Broken 1000 ft.

KMHT 200953Z 31009G17KT 10SM BKN100 03/M04 A2989 RMK AO2 SLP138 T00331044


Wind From 310°
Speed 09 kn.

  YouTube Music Video
 
jpsmedia.com for Web Design  worldairports.se 2018   terms of use